sensor_id;sensor_type;location;lat;lon;timestamp;temperature;humidity
5850;DHT22;2951;47.712;9.400;2023-09-19T00:01:09;16.40;99.90
5850;DHT22;2951;47.712;9.400;2023-09-19T00:03:37;16.40;99.90
5850;DHT22;2951;47.712;9.400;2023-09-19T00:06:05;16.40;99.90
5850;DHT22;2951;47.712;9.400;2023-09-19T00:08:34;16.40;99.90
5850;DHT22;2951;47.712;9.400;2023-09-19T00:11:01;16.40;99.90
5850;DHT22;2951;47.712;9.400;2023-09-19T00:13:30;16.40;99.90
5850;DHT22;2951;47.712;9.400;2023-09-19T00:15:57;16.40;99.90
5850;DHT22;2951;47.712;9.400;2023-09-19T00:18:25;16.50;99.90
5850;DHT22;2951;47.712;9.400;2023-09-19T00:20:58;16.50;99.90
5850;DHT22;2951;47.712;9.400;2023-09-19T00:23:25;16.50;99.90
5850;DHT22;2951;47.712;9.400;2023-09-19T00:25:52;16.40;99.90
5850;DHT22;2951;47.712;9.400;2023-09-19T00:28:19;16.30;99.90
5850;DHT22;2951;47.712;9.400;2023-09-19T00:30:49;16.30;99.90
5850;DHT22;2951;47.712;9.400;2023-09-19T00:33:18;16.30;99.90
5850;DHT22;2951;47.712;9.400;2023-09-19T00:38:15;16.20;99.90
5850;DHT22;2951;47.712;9.400;2023-09-19T00:40:44;16.20;99.90
5850;DHT22;2951;47.712;9.400;2023-09-19T00:43:11;16.20;99.90
5850;DHT22;2951;47.712;9.400;2023-09-19T00:45:37;16.20;99.90
5850;DHT22;2951;47.712;9.400;2023-09-19T00:48:09;16.30;99.90
5850;DHT22;2951;47.712;9.400;2023-09-19T00:50:41;16.30;99.90
5850;DHT22;2951;47.712;9.400;2023-09-19T00:53:13;16.40;99.90
5850;DHT22;2951;47.712;9.400;2023-09-19T00:55:40;16.40;99.90
5850;DHT22;2951;47.712;9.400;2023-09-19T00:58:09;16.40;99.90
5850;DHT22;2951;47.712;9.400;2023-09-19T01:00:37;16.40;99.90
5850;DHT22;2951;47.712;9.400;2023-09-19T01:03:03;16.40;99.90
5850;DHT22;2951;47.712;9.400;2023-09-19T01:05:31;16.40;99.90
5850;DHT22;2951;47.712;9.400;2023-09-19T01:07:58;16.50;99.90
5850;DHT22;2951;47.712;9.400;2023-09-19T01:10:25;16.60;99.90
5850;DHT22;2951;47.712;9.400;2023-09-19T01:15:45;16.80;99.90
5850;DHT22;2951;47.712;9.400;2023-09-19T01:23:18;16.80;99.90
5850;DHT22;2951;47.712;9.400;2023-09-19T01:28:51;16.80;99.90
5850;DHT22;2951;47.712;9.400;2023-09-19T01:31:09;16.80;99.90
5850;DHT22;2951;47.712;9.400;2023-09-19T01:36:23;16.80;99.90
5850;DHT22;2951;47.712;9.400;2023-09-19T01:38:50;16.80;99.90
5850;DHT22;2951;47.712;9.400;2023-09-19T01:41:33;16.90;99.90
5850;DHT22;2951;47.712;9.400;2023-09-19T01:44:02;16.90;99.90
5850;DHT22;2951;47.712;9.400;2023-09-19T01:46:35;16.90;99.90
5850;DHT22;2951;47.712;9.400;2023-09-19T01:54:48;16.90;99.90
5850;DHT22;2951;47.712;9.400;2023-09-19T01:57:20;17.00;99.90
5850;DHT22;2951;47.712;9.400;2023-09-19T01:59:50;16.90;99.90
5850;DHT22;2951;47.712;9.400;2023-09-19T02:02:20;16.90;99.90
5850;DHT22;2951;47.712;9.400;2023-09-19T02:04:49;16.90;99.90
5850;DHT22;2951;47.712;9.400;2023-09-19T02:07:17;16.90;99.90
5850;DHT22;2951;47.712;9.400;2023-09-19T02:09:43;16.90;99.90
5850;DHT22;2951;47.712;9.400;2023-09-19T02:12:10;16.90;99.90
5850;DHT22;2951;47.712;9.400;2023-09-19T02:14:38;16.80;99.90
5850;DHT22;2951;47.712;9.400;2023-09-19T02:17:05;16.80;99.90
5850;DHT22;2951;47.712;9.400;2023-09-19T02:19:33;16.80;99.90
5850;DHT22;2951;47.712;9.400;2023-09-19T02:22:00;16.80;99.90
5850;DHT22;2951;47.712;9.400;2023-09-19T02:24:29;16.70;99.90
5850;DHT22;2951;47.712;9.400;2023-09-19T02:26:56;16.80;99.90
5850;DHT22;2951;47.712;9.400;2023-09-19T02:29:23;16.70;99.90
5850;DHT22;2951;47.712;9.400;2023-09-19T02:31:50;16.70;99.90
5850;DHT22;2951;47.712;9.400;2023-09-19T02:34:18;16.70;99.90
5850;DHT22;2951;47.712;9.400;2023-09-19T02:36:46;16.70;99.90
5850;DHT22;2951;47.712;9.400;2023-09-19T02:39:13;16.70;99.90
5850;DHT22;2951;47.712;9.400;2023-09-19T02:41:40;16.80;99.90
5850;DHT22;2951;47.712;9.400;2023-09-19T02:44:07;16.80;99.90
5850;DHT22;2951;47.712;9.400;2023-09-19T02:46:34;16.80;99.90
5850;DHT22;2951;47.712;9.400;2023-09-19T02:49:03;16.80;99.90
5850;DHT22;2951;47.712;9.400;2023-09-19T02:51:37;16.80;99.90
5850;DHT22;2951;47.712;9.400;2023-09-19T02:54:03;16.80;99.90
5850;DHT22;2951;47.712;9.400;2023-09-19T02:56:30;16.80;99.90
5850;DHT22;2951;47.712;9.400;2023-09-19T02:58:58;16.80;99.90
5850;DHT22;2951;47.712;9.400;2023-09-19T03:01:27;16.80;99.90
5850;DHT22;2951;47.712;9.400;2023-09-19T03:03:54;16.80;99.90
5850;DHT22;2951;47.712;9.400;2023-09-19T03:06:45;16.80;99.90
5850;DHT22;2951;47.712;9.400;2023-09-19T03:09:11;16.80;99.90
5850;DHT22;2951;47.712;9.400;2023-09-19T03:11:39;16.80;99.90
5850;DHT22;2951;47.712;9.400;2023-09-19T03:14:06;16.80;99.90
5850;DHT22;2951;47.712;9.400;2023-09-19T03:16:33;16.80;99.90
5850;DHT22;2951;47.712;9.400;2023-09-19T03:19:00;16.80;99.90
5850;DHT22;2951;47.712;9.400;2023-09-19T03:21:26;16.80;99.90
5850;DHT22;2951;47.712;9.400;2023-09-19T03:23:56;16.90;99.90
5850;DHT22;2951;47.712;9.400;2023-09-19T03:26:22;16.90;99.90
5850;DHT22;2951;47.712;9.400;2023-09-19T03:28:49;16.90;99.90
5850;DHT22;2951;47.712;9.400;2023-09-19T03:31:16;16.90;99.90
5850;DHT22;2951;47.712;9.400;2023-09-19T03:33:43;16.90;99.90
5850;DHT22;2951;47.712;9.400;2023-09-19T03:36:10;16.90;99.90
5850;DHT22;2951;47.712;9.400;2023-09-19T03:38:39;16.90;99.90
5850;DHT22;2951;47.712;9.400;2023-09-19T03:41:06;16.90;99.90
5850;DHT22;2951;47.712;9.400;2023-09-19T03:43:33;16.90;99.90
5850;DHT22;2951;47.712;9.400;2023-09-19T03:46:03;16.90;99.90
5850;DHT22;2951;47.712;9.400;2023-09-19T03:48:34;16.90;99.90
5850;DHT22;2951;47.712;9.400;2023-09-19T03:51:04;16.80;99.90
5850;DHT22;2951;47.712;9.400;2023-09-19T03:53:31;16.80;99.90
5850;DHT22;2951;47.712;9.400;2023-09-19T03:55:58;16.80;99.90
5850;DHT22;2951;47.712;9.400;2023-09-19T03:58:31;16.80;99.90
5850;DHT22;2951;47.712;9.400;2023-09-19T04:00:58;16.80;99.90
5850;DHT22;2951;47.712;9.400;2023-09-19T04:03:31;16.80;99.90
5850;DHT22;2951;47.712;9.400;2023-09-19T04:06:12;16.70;99.90
5850;DHT22;2951;47.712;9.400;2023-09-19T04:08:40;16.70;99.90
5850;DHT22;2951;47.712;9.400;2023-09-19T04:11:07;16.70;99.90
5850;DHT22;2951;47.712;9.400;2023-09-19T04:13:33;16.70;99.90
5850;DHT22;2951;47.712;9.400;2023-09-19T04:16:00;16.70;99.90
5850;DHT22;2951;47.712;9.400;2023-09-19T04:18:27;16.70;99.90
5850;DHT22;2951;47.712;9.400;2023-09-19T04:20:54;16.60;99.90
5850;DHT22;2951;47.712;9.400;2023-09-19T04:23:21;16.60;99.90
5850;DHT22;2951;47.712;9.400;2023-09-19T04:25:48;16.60;99.90
5850;DHT22;2951;47.712;9.400;2023-09-19T04:28:15;16.60;99.90
5850;DHT22;2951;47.712;9.400;2023-09-19T04:31:06;16.60;99.90
5850;DHT22;2951;47.712;9.400;2023-09-19T04:33:34;16.60;99.90
5850;DHT22;2951;47.712;9.400;2023-09-19T04:36:02;16.60;99.90
5850;DHT22;2951;47.712;9.400;2023-09-19T04:38:40;16.60;99.90
5850;DHT22;2951;47.712;9.400;2023-09-19T04:41:08;16.70;99.90
5850;DHT22;2951;47.712;9.400;2023-09-19T04:43:35;16.60;99.90
5850;DHT22;2951;47.712;9.400;2023-09-19T04:46:02;16.60;99.90
5850;DHT22;2951;47.712;9.400;2023-09-19T04:48:32;16.60;99.90
5850;DHT22;2951;47.712;9.400;2023-09-19T04:51:02;16.60;99.90
5850;DHT22;2951;47.712;9.400;2023-09-19T04:53:29;16.60;99.90
5850;DHT22;2951;47.712;9.400;2023-09-19T04:55:56;16.70;99.90
5850;DHT22;2951;47.712;9.400;2023-09-19T04:58:24;16.70;99.90
5850;DHT22;2951;47.712;9.400;2023-09-19T05:00:51;16.70;99.90
5850;DHT22;2951;47.712;9.400;2023-09-19T05:03:18;16.70;99.90
5850;DHT22;2951;47.712;9.400;2023-09-19T05:05:46;16.70;99.90
5850;DHT22;2951;47.712;9.400;2023-09-19T05:08:13;16.80;99.90
5850;DHT22;2951;47.712;9.400;2023-09-19T05:10:41;16.80;99.90
5850;DHT22;2951;47.712;9.400;2023-09-19T05:13:07;16.80;99.90
5850;DHT22;2951;47.712;9.400;2023-09-19T05:15:34;16.80;99.90
5850;DHT22;2951;47.712;9.400;2023-09-19T05:18:03;16.80;99.90
5850;DHT22;2951;47.712;9.400;2023-09-19T05:20:30;16.90;99.90
5850;DHT22;2951;47.712;9.400;2023-09-19T05:23:00;16.90;99.90
5850;DHT22;2951;47.712;9.400;2023-09-19T05:25:34;16.90;99.90
5850;DHT22;2951;47.712;9.400;2023-09-19T05:28:05;16.90;99.90
5850;DHT22;2951;47.712;9.400;2023-09-19T05:30:32;16.90;99.90
5850;DHT22;2951;47.712;9.400;2023-09-19T05:32:59;16.90;99.90
5850;DHT22;2951;47.712;9.400;2023-09-19T05:35:26;16.90;99.90
5850;DHT22;2951;47.712;9.400;2023-09-19T05:37:53;16.90;99.90
5850;DHT22;2951;47.712;9.400;2023-09-19T05:40:21;17.00;99.90
5850;DHT22;2951;47.712;9.400;2023-09-19T05:42:48;17.00;99.90
5850;DHT22;2951;47.712;9.400;2023-09-19T05:45:17;17.00;99.90
5850;DHT22;2951;47.712;9.400;2023-09-19T05:47:51;17.00;99.90
5850;DHT22;2951;47.712;9.400;2023-09-19T05:50:22;17.10;99.90
5850;DHT22;2951;47.712;9.400;2023-09-19T05:52:54;17.10;99.90
5850;DHT22;2951;47.712;9.400;2023-09-19T05:55:22;17.10;99.90
5850;DHT22;2951;47.712;9.400;2023-09-19T05:57:52;17.20;99.90
5850;DHT22;2951;47.712;9.400;2023-09-19T06:00:20;17.20;99.90
5850;DHT22;2951;47.712;9.400;2023-09-19T06:02:50;17.20;99.90
5850;DHT22;2951;47.712;9.400;2023-09-19T06:05:17;17.20;99.90
5850;DHT22;2951;47.712;9.400;2023-09-19T06:07:44;17.20;99.90
5850;DHT22;2951;47.712;9.400;2023-09-19T06:10:11;17.20;99.90
5850;DHT22;2951;47.712;9.400;2023-09-19T06:12:41;17.30;99.90
5850;DHT22;2951;47.712;9.400;2023-09-19T06:15:11;17.40;99.90
5850;DHT22;2951;47.712;9.400;2023-09-19T06:17:42;17.40;99.90
5850;DHT22;2951;47.712;9.400;2023-09-19T06:20:09;17.40;99.90
5850;DHT22;2951;47.712;9.400;2023-09-19T06:22:40;17.40;99.90
5850;DHT22;2951;47.712;9.400;2023-09-19T06:25:11;17.40;99.90
5850;DHT22;2951;47.712;9.400;2023-09-19T06:27:39;17.40;99.90
5850;DHT22;2951;47.712;9.400;2023-09-19T06:30:09;17.40;99.90
5850;DHT22;2951;47.712;9.400;2023-09-19T06:32:37;17.50;99.90
5850;DHT22;2951;47.712;9.400;2023-09-19T06:35:05;17.50;99.90
5850;DHT22;2951;47.712;9.400;2023-09-19T06:37:36;17.60;99.90
5850;DHT22;2951;47.712;9.400;2023-09-19T06:40:06;17.70;99.90
5850;DHT22;2951;47.712;9.400;2023-09-19T06:42:33;17.70;99.90
5850;DHT22;2951;47.712;9.400;2023-09-19T06:45:00;17.80;99.90
5850;DHT22;2951;47.712;9.400;2023-09-19T06:47:27;17.80;99.90
5850;DHT22;2951;47.712;9.400;2023-09-19T06:49:53;17.60;99.90
5850;DHT22;2951;47.712;9.400;2023-09-19T06:52:21;17.50;99.90
5850;DHT22;2951;47.712;9.400;2023-09-19T06:54:48;17.50;99.90
5850;DHT22;2951;47.712;9.400;2023-09-19T06:57:16;17.60;99.90
5850;DHT22;2951;47.712;9.400;2023-09-19T06:59:43;17.50;99.90
5850;DHT22;2951;47.712;9.400;2023-09-19T07:02:11;17.60;99.90
5850;DHT22;2951;47.712;9.400;2023-09-19T07:04:38;17.60;99.90
5850;DHT22;2951;47.712;9.400;2023-09-19T07:07:06;17.60;99.90
5850;DHT22;2951;47.712;9.400;2023-09-19T07:09:35;17.60;99.90
5850;DHT22;2951;47.712;9.400;2023-09-19T07:12:02;17.60;99.90
5850;DHT22;2951;47.712;9.400;2023-09-19T07:14:32;17.60;99.90
5850;DHT22;2951;47.712;9.400;2023-09-19T07:16:58;17.60;99.90
5850;DHT22;2951;47.712;9.400;2023-09-19T07:19:30;17.60;99.90
5850;DHT22;2951;47.712;9.400;2023-09-19T07:22:00;17.50;99.90
5850;DHT22;2951;47.712;9.400;2023-09-19T07:24:29;17.50;99.90
5850;DHT22;2951;47.712;9.400;2023-09-19T07:26:55;17.60;99.90
5850;DHT22;2951;47.712;9.400;2023-09-19T07:29:22;17.70;99.90
5850;DHT22;2951;47.712;9.400;2023-09-19T07:31:49;17.80;99.90
5850;DHT22;2951;47.712;9.400;2023-09-19T07:34:16;17.90;99.90
5850;DHT22;2951;47.712;9.400;2023-09-19T07:36:43;17.90;99.90
5850;DHT22;2951;47.712;9.400;2023-09-19T07:39:10;18.00;99.90
5850;DHT22;2951;47.712;9.400;2023-09-19T07:41:48;18.20;99.90
5850;DHT22;2951;47.712;9.400;2023-09-19T07:44:16;18.30;99.90
5850;DHT22;2951;47.712;9.400;2023-09-19T07:46:43;18.30;99.90
5850;DHT22;2951;47.712;9.400;2023-09-19T07:49:10;18.30;99.90
5850;DHT22;2951;47.712;9.400;2023-09-19T07:51:41;18.30;99.90
5850;DHT22;2951;47.712;9.400;2023-09-19T07:54:08;18.20;99.90
5850;DHT22;2951;47.712;9.400;2023-09-19T07:56:36;18.20;99.90
5850;DHT22;2951;47.712;9.400;2023-09-19T07:59:04;18.30;99.90
5850;DHT22;2951;47.712;9.400;2023-09-19T08:01:30;18.30;99.90
5850;DHT22;2951;47.712;9.400;2023-09-19T08:03:58;18.20;99.90
5850;DHT22;2951;47.712;9.400;2023-09-19T08:06:25;18.10;99.90
5850;DHT22;2951;47.712;9.400;2023-09-19T08:08:56;18.10;99.90
5850;DHT22;2951;47.712;9.400;2023-09-19T08:11:23;18.20;99.90
5850;DHT22;2951;47.712;9.400;2023-09-19T08:13:52;18.30;99.90
5850;DHT22;2951;47.712;9.400;2023-09-19T08:16:19;18.40;99.90
5850;DHT22;2951;47.712;9.400;2023-09-19T08:18:48;18.60;99.90
5850;DHT22;2951;47.712;9.400;2023-09-19T08:21:19;18.70;99.90
5850;DHT22;2951;47.712;9.400;2023-09-19T08:23:46;18.80;99.90
5850;DHT22;2951;47.712;9.400;2023-09-19T08:26:12;18.90;99.90
5850;DHT22;2951;47.712;9.400;2023-09-19T08:28:40;19.10;99.90
5850;DHT22;2951;47.712;9.400;2023-09-19T08:31:09;19.20;99.90
5850;DHT22;2951;47.712;9.400;2023-09-19T08:33:37;19.20;99.90
5850;DHT22;2951;47.712;9.400;2023-09-19T08:36:06;19.10;99.90
5850;DHT22;2951;47.712;9.400;2023-09-19T08:38:34;19.00;99.90
5850;DHT22;2951;47.712;9.400;2023-09-19T08:41:05;19.40;99.90
5850;DHT22;2951;47.712;9.400;2023-09-19T08:43:33;19.40;99.90
5850;DHT22;2951;47.712;9.400;2023-09-19T08:46:10;19.50;99.90
5850;DHT22;2951;47.712;9.400;2023-09-19T08:48:39;19.50;99.90
5850;DHT22;2951;47.712;9.400;2023-09-19T08:51:21;19.40;99.90
5850;DHT22;2951;47.712;9.400;2023-09-19T08:56:19;19.50;99.90
5850;DHT22;2951;47.712;9.400;2023-09-19T09:01:15;19.70;99.90
5850;DHT22;2951;47.712;9.400;2023-09-19T09:03:43;19.80;99.90
5850;DHT22;2951;47.712;9.400;2023-09-19T09:06:14;19.80;99.90
5850;DHT22;2951;47.712;9.400;2023-09-19T09:08:43;19.70;99.90
5850;DHT22;2951;47.712;9.400;2023-09-19T09:11:11;19.60;99.90
5850;DHT22;2951;47.712;9.400;2023-09-19T09:13:40;19.80;99.90
5850;DHT22;2951;47.712;9.400;2023-09-19T09:16:09;20.00;99.90
5850;DHT22;2951;47.712;9.400;2023-09-19T09:18:36;20.00;99.90
5850;DHT22;2951;47.712;9.400;2023-09-19T09:21:03;20.20;99.90
5850;DHT22;2951;47.712;9.400;2023-09-19T09:23:33;20.00;99.90
5850;DHT22;2951;47.712;9.400;2023-09-19T09:26:00;20.00;99.90
5850;DHT22;2951;47.712;9.400;2023-09-19T09:28:32;19.80;99.90
5850;DHT22;2951;47.712;9.400;2023-09-19T09:31:03;19.80;99.90
5850;DHT22;2951;47.712;9.400;2023-09-19T09:33:35;19.70;99.90
5850;DHT22;2951;47.712;9.400;2023-09-19T09:36:02;19.60;99.90
5850;DHT22;2951;47.712;9.400;2023-09-19T09:38:46;19.50;99.90
5850;DHT22;2951;47.712;9.400;2023-09-19T09:41:15;19.40;99.90
5850;DHT22;2951;47.712;9.400;2023-09-19T09:43:53;19.50;99.90
5850;DHT22;2951;47.712;9.400;2023-09-19T09:46:21;19.50;99.90
5850;DHT22;2951;47.712;9.400;2023-09-19T09:48:55;19.50;99.90
5850;DHT22;2951;47.712;9.400;2023-09-19T09:51:41;19.50;99.90
5850;DHT22;2951;47.712;9.400;2023-09-19T09:54:24;19.70;99.90
5850;DHT22;2951;47.712;9.400;2023-09-19T09:56:56;19.80;99.90
5850;DHT22;2951;47.712;9.400;2023-09-19T09:59:45;19.80;99.90
5850;DHT22;2951;47.712;9.400;2023-09-19T10:02:26;19.80;99.90
5850;DHT22;2951;47.712;9.400;2023-09-19T10:04:56;20.00;99.90
5850;DHT22;2951;47.712;9.400;2023-09-19T10:07:41;20.10;99.90
5850;DHT22;2951;47.712;9.400;2023-09-19T10:13:21;20.30;99.90
5850;DHT22;2951;47.712;9.400;2023-09-19T10:15:50;20.60;99.90
5850;DHT22;2951;47.712;9.400;2023-09-19T10:18:19;21.00;99.90
5850;DHT22;2951;47.712;9.400;2023-09-19T10:20:47;20.90;99.90
5850;DHT22;2951;47.712;9.400;2023-09-19T10:23:16;20.90;99.90
5850;DHT22;2951;47.712;9.400;2023-09-19T10:25:49;20.80;99.90
5850;DHT22;2951;47.712;9.400;2023-09-19T10:28:16;20.50;99.90
5850;DHT22;2951;47.712;9.400;2023-09-19T10:30:49;20.40;99.90
5850;DHT22;2951;47.712;9.400;2023-09-19T10:33:17;20.10;99.90
5850;DHT22;2951;47.712;9.400;2023-09-19T10:35:48;20.00;99.90
5850;DHT22;2951;47.712;9.400;2023-09-19T10:38:19;19.80;99.90
5850;DHT22;2951;47.712;9.400;2023-09-19T10:40:49;19.90;99.90
5850;DHT22;2951;47.712;9.400;2023-09-19T10:43:18;19.90;99.90
5850;DHT22;2951;47.712;9.400;2023-09-19T10:45:45;19.90;99.90
5850;DHT22;2951;47.712;9.400;2023-09-19T10:48:16;19.80;99.90
5850;DHT22;2951;47.712;9.400;2023-09-19T10:51:04;19.90;99.90
5850;DHT22;2951;47.712;9.400;2023-09-19T10:53:40;19.80;99.90
5850;DHT22;2951;47.712;9.400;2023-09-19T10:56:08;19.70;99.90
5850;DHT22;2951;47.712;9.400;2023-09-19T10:58:43;19.90;99.90
5850;DHT22;2951;47.712;9.400;2023-09-19T11:01:11;19.90;99.90
5850;DHT22;2951;47.712;9.400;2023-09-19T11:03:42;19.90;99.90
5850;DHT22;2951;47.712;9.400;2023-09-19T11:06:15;20.10;99.90
5850;DHT22;2951;47.712;9.400;2023-09-19T11:08:52;20.30;99.90
5850;DHT22;2951;47.712;9.400;2023-09-19T11:22:24;20.80;99.90
5850;DHT22;2951;47.712;9.400;2023-09-19T11:24:53;20.80;99.90
5850;DHT22;2951;47.712;9.400;2023-09-19T11:27:22;20.60;99.90
5850;DHT22;2951;47.712;9.400;2023-09-19T11:30:06;20.50;99.90
5850;DHT22;2951;47.712;9.400;2023-09-19T11:35:51;20.50;99.90
5850;DHT22;2951;47.712;9.400;2023-09-19T11:38:15;20.60;99.90
5850;DHT22;2951;47.712;9.400;2023-09-19T11:40:44;20.60;99.90
5850;DHT22;2951;47.712;9.400;2023-09-19T11:43:30;20.60;99.90
5850;DHT22;2951;47.712;9.400;2023-09-19T11:46:01;20.50;99.90
5850;DHT22;2951;47.712;9.400;2023-09-19T11:48:32;20.60;99.90
5850;DHT22;2951;47.712;9.400;2023-09-19T11:50:59;20.60;99.90
5850;DHT22;2951;47.712;9.400;2023-09-19T11:53:30;21.00;99.90
5850;DHT22;2951;47.712;9.400;2023-09-19T11:55:58;20.90;99.90
5850;DHT22;2951;47.712;9.400;2023-09-19T11:58:29;21.30;99.90
5850;DHT22;2951;47.712;9.400;2023-09-19T12:00:56;21.50;99.90
5850;DHT22;2951;47.712;9.400;2023-09-19T12:03:27;21.30;99.90
5850;DHT22;2951;47.712;9.400;2023-09-19T12:05:56;21.30;99.90
5850;DHT22;2951;47.712;9.400;2023-09-19T12:08:24;21.50;99.90
5850;DHT22;2951;47.712;9.400;2023-09-19T12:10:53;21.80;99.90
5850;DHT22;2951;47.712;9.400;2023-09-19T12:13:21;22.00;99.90
5850;DHT22;2951;47.712;9.400;2023-09-19T12:15:48;21.70;99.90
5850;DHT22;2951;47.712;9.400;2023-09-19T12:18:31;21.90;99.90
5850;DHT22;2951;47.712;9.400;2023-09-19T12:21:00;21.90;99.90
5850;DHT22;2951;47.712;9.400;2023-09-19T12:23:31;21.60;99.90
5850;DHT22;2951;47.712;9.400;2023-09-19T12:25:58;21.60;99.90
5850;DHT22;2951;47.712;9.400;2023-09-19T12:28:26;21.60;99.90
5850;DHT22;2951;47.712;9.400;2023-09-19T12:30:53;21.40;99.90
5850;DHT22;2951;47.712;9.400;2023-09-19T12:33:22;21.40;99.90
5850;DHT22;2951;47.712;9.400;2023-09-19T12:36:22;21.50;99.90
5850;DHT22;2951;47.712;9.400;2023-09-19T12:38:56;21.30;99.90
5850;DHT22;2951;47.712;9.400;2023-09-19T12:41:25;21.20;99.90
5850;DHT22;2951;47.712;9.400;2023-09-19T12:43:53;21.10;99.90
5850;DHT22;2951;47.712;9.400;2023-09-19T12:46:21;21.30;99.90
5850;DHT22;2951;47.712;9.400;2023-09-19T12:49:16;21.40;99.90
5850;DHT22;2951;47.712;9.400;2023-09-19T12:51:45;21.30;99.90
5850;DHT22;2951;47.712;9.400;2023-09-19T12:54:12;21.50;99.90
5850;DHT22;2951;47.712;9.400;2023-09-19T12:56:43;21.80;99.90
5850;DHT22;2951;47.712;9.400;2023-09-19T12:59:14;21.70;99.90
5850;DHT22;2951;47.712;9.400;2023-09-19T13:01:42;21.70;99.90
5850;DHT22;2951;47.712;9.400;2023-09-19T13:04:16;21.80;99.90
5850;DHT22;2951;47.712;9.400;2023-09-19T13:06:47;21.90;99.90
5850;DHT22;2951;47.712;9.400;2023-09-19T13:09:21;22.00;99.90
5850;DHT22;2951;47.712;9.400;2023-09-19T13:11:48;22.00;99.90
5850;DHT22;2951;47.712;9.400;2023-09-19T13:14:18;22.00;99.90
5850;DHT22;2951;47.712;9.400;2023-09-19T13:16:59;21.90;99.90
5850;DHT22;2951;47.712;9.400;2023-09-19T13:19:37;21.90;99.90
5850;DHT22;2951;47.712;9.400;2023-09-19T13:24:51;22.10;99.90
5850;DHT22;2951;47.712;9.400;2023-09-19T13:27:19;22.00;99.90
5850;DHT22;2951;47.712;9.400;2023-09-19T13:29:46;22.00;99.90
5850;DHT22;2951;47.712;9.400;2023-09-19T13:32:13;22.00;99.90
5850;DHT22;2951;47.712;9.400;2023-09-19T13:34:41;22.00;99.90
5850;DHT22;2951;47.712;9.400;2023-09-19T13:37:07;22.10;99.90
5850;DHT22;2951;47.712;9.400;2023-09-19T13:39:34;22.20;99.90
5850;DHT22;2951;47.712;9.400;2023-09-19T13:42:04;22.40;99.90
5850;DHT22;2951;47.712;9.400;2023-09-19T13:44:31;22.20;99.90
5850;DHT22;2951;47.712;9.400;2023-09-19T13:46:57;22.20;99.90
5850;DHT22;2951;47.712;9.400;2023-09-19T13:49:26;22.40;99.90
5850;DHT22;2951;47.712;9.400;2023-09-19T13:51:54;22.40;99.90
5850;DHT22;2951;47.712;9.400;2023-09-19T13:54:21;22.20;99.90
5850;DHT22;2951;47.712;9.400;2023-09-19T13:56:49;22.20;99.90
5850;DHT22;2951;47.712;9.400;2023-09-19T13:59:16;22.80;99.90
5850;DHT22;2951;47.712;9.400;2023-09-19T14:01:43;23.30;99.90
5850;DHT22;2951;47.712;9.400;2023-09-19T14:04:10;23.70;99.90
5850;DHT22;2951;47.712;9.400;2023-09-19T14:06:41;24.10;99.90
5850;DHT22;2951;47.712;9.400;2023-09-19T14:09:07;24.30;99.90
5850;DHT22;2951;47.712;9.400;2023-09-19T14:11:35;24.30;99.90
5850;DHT22;2951;47.712;9.400;2023-09-19T14:14:03;24.40;99.90
5850;DHT22;2951;47.712;9.400;2023-09-19T14:16:31;24.30;99.90
5850;DHT22;2951;47.712;9.400;2023-09-19T14:18:58;24.70;99.90
5850;DHT22;2951;47.712;9.400;2023-09-19T14:21:24;24.50;99.90
5850;DHT22;2951;47.712;9.400;2023-09-19T14:23:51;24.60;99.90
5850;DHT22;2951;47.712;9.400;2023-09-19T14:26:18;25.10;99.90
5850;DHT22;2951;47.712;9.400;2023-09-19T14:28:45;25.50;99.90
5850;DHT22;2951;47.712;9.400;2023-09-19T14:31:11;25.70;99.90
5850;DHT22;2951;47.712;9.400;2023-09-19T14:33:38;25.80;99.90
5850;DHT22;2951;47.712;9.400;2023-09-19T14:36:05;25.30;99.90
5850;DHT22;2951;47.712;9.400;2023-09-19T14:38:37;25.20;99.90
5850;DHT22;2951;47.712;9.400;2023-09-19T14:41:06;25.20;99.90
5850;DHT22;2951;47.712;9.400;2023-09-19T14:43:32;25.40;99.90
5850;DHT22;2951;47.712;9.400;2023-09-19T14:46:05;25.50;99.90
5850;DHT22;2951;47.712;9.400;2023-09-19T14:48:39;25.50;99.90
5850;DHT22;2951;47.712;9.400;2023-09-19T14:51:08;25.20;99.90
5850;DHT22;2951;47.712;9.400;2023-09-19T14:53:35;25.00;99.90
5850;DHT22;2951;47.712;9.400;2023-09-19T14:56:04;25.30;99.90
5850;DHT22;2951;47.712;9.400;2023-09-19T14:58:32;25.40;99.90
5850;DHT22;2951;47.712;9.400;2023-09-19T15:03:30;25.90;99.20
5850;DHT22;2951;47.712;9.400;2023-09-19T15:06:03;26.00;98.10
5850;DHT22;2951;47.712;9.400;2023-09-19T15:08:34;25.80;99.20
5850;DHT22;2951;47.712;9.400;2023-09-19T15:11:01;25.80;98.50
5850;DHT22;2951;47.712;9.400;2023-09-19T15:13:32;26.20;97.00
5850;DHT22;2951;47.712;9.400;2023-09-19T15:15:59;26.20;99.50
5850;DHT22;2951;47.712;9.400;2023-09-19T15:18:27;26.20;99.90
5850;DHT22;2951;47.712;9.400;2023-09-19T15:20:54;25.90;99.20
5850;DHT22;2951;47.712;9.400;2023-09-19T15:23:21;25.90;98.90
5850;DHT22;2951;47.712;9.400;2023-09-19T15:25:50;26.20;99.10
5850;DHT22;2951;47.712;9.400;2023-09-19T15:28:18;26.30;98.90
5850;DHT22;2951;47.712;9.400;2023-09-19T15:30:45;26.60;98.40
5850;DHT22;2951;47.712;9.400;2023-09-19T15:33:11;26.80;98.70
5850;DHT22;2951;47.712;9.400;2023-09-19T15:35:38;26.50;99.90
5850;DHT22;2951;47.712;9.400;2023-09-19T15:38:07;26.30;97.30
5850;DHT22;2951;47.712;9.400;2023-09-19T15:40:34;26.40;97.70
5850;DHT22;2951;47.712;9.400;2023-09-19T15:43:01;26.30;97.50
5850;DHT22;2951;47.712;9.400;2023-09-19T15:45:27;26.10;97.90
5850;DHT22;2951;47.712;9.400;2023-09-19T15:47:54;25.90;98.10
5850;DHT22;2951;47.712;9.400;2023-09-19T15:50:21;25.70;99.10
5850;DHT22;2951;47.712;9.400;2023-09-19T15:52:55;26.00;99.30
5850;DHT22;2951;47.712;9.400;2023-09-19T15:55:22;26.40;99.00
5850;DHT22;2951;47.712;9.400;2023-09-19T15:57:49;26.20;97.60
5850;DHT22;2951;47.712;9.400;2023-09-19T16:00:17;25.60;97.50
5850;DHT22;2951;47.712;9.400;2023-09-19T16:02:46;25.20;98.10
5850;DHT22;2951;47.712;9.400;2023-09-19T16:05:14;25.10;98.10
5850;DHT22;2951;47.712;9.400;2023-09-19T16:07:43;24.80;97.50
5850;DHT22;2951;47.712;9.400;2023-09-19T16:10:10;24.70;99.90
5850;DHT22;2951;47.712;9.400;2023-09-19T16:12:37;24.70;98.30
5850;DHT22;2951;47.712;9.400;2023-09-19T16:15:04;24.50;99.90
5850;DHT22;2951;47.712;9.400;2023-09-19T16:17:31;24.40;99.00
5850;DHT22;2951;47.712;9.400;2023-09-19T16:19:58;24.00;99.40
5850;DHT22;2951;47.712;9.400;2023-09-19T16:22:24;23.80;99.90
5850;DHT22;2951;47.712;9.400;2023-09-19T16:24:52;23.70;99.90
5850;DHT22;2951;47.712;9.400;2023-09-19T16:27:19;23.60;99.80
5850;DHT22;2951;47.712;9.400;2023-09-19T16:29:49;23.60;99.90
5850;DHT22;2951;47.712;9.400;2023-09-19T16:32:16;23.40;99.90
5850;DHT22;2951;47.712;9.400;2023-09-19T16:34:43;23.30;99.90
5850;DHT22;2951;47.712;9.400;2023-09-19T16:37:14;23.20;99.70
5850;DHT22;2951;47.712;9.400;2023-09-19T16:39:41;23.00;99.90
5850;DHT22;2951;47.712;9.400;2023-09-19T16:42:08;22.90;99.90
5850;DHT22;2951;47.712;9.400;2023-09-19T16:44:46;22.80;99.40
5850;DHT22;2951;47.712;9.400;2023-09-19T16:47:12;22.70;99.90
5850;DHT22;2951;47.712;9.400;2023-09-19T16:49:42;22.70;99.90
5850;DHT22;2951;47.712;9.400;2023-09-19T16:52:12;22.60;99.90
5850;DHT22;2951;47.712;9.400;2023-09-19T16:54:39;22.50;99.90
5850;DHT22;2951;47.712;9.400;2023-09-19T16:57:12;22.50;99.70
5850;DHT22;2951;47.712;9.400;2023-09-19T16:59:41;22.30;99.90
5850;DHT22;2951;47.712;9.400;2023-09-19T17:02:08;22.30;99.90
5850;DHT22;2951;47.712;9.400;2023-09-19T17:04:35;22.10;99.90